sensor_id;sensor_type;location;lat;lon;timestamp;P1;durP1;ratioP1;P2;durP2;ratioP2
77136;SDS011;66102;48.542;-2.970;2023-01-20T00:03:26;7.22;;;3.20;;
77136;SDS011;66102;48.542;-2.970;2023-01-20T00:08:18;8.65;;;3.50;;
77136;SDS011;66102;48.542;-2.970;2023-01-20T00:13:10;6.00;;;3.00;;
77136;SDS011;66102;48.542;-2.970;2023-01-20T00:18:02;9.23;;;3.95;;
77136;SDS011;66102;48.542;-2.970;2023-01-20T00:20:28;11.65;;;4.03;;
77136;SDS011;66102;48.542;-2.970;2023-01-20T00:25:20;14.18;;;4.43;;
77136;SDS011;66102;48.542;-2.970;2023-01-20T00:30:12;10.75;;;4.40;;
77136;SDS011;66102;48.542;-2.970;2023-01-20T00:32:39;12.38;;;4.75;;
77136;SDS011;66102;48.542;-2.970;2023-01-20T00:35:09;16.02;;;4.75;;
77136;SDS011;66102;48.542;-2.970;2023-01-20T00:37:35;11.93;;;3.72;;
77136;SDS011;66102;48.542;-2.970;2023-01-20T00:42:27;11.55;;;3.58;;
77136;SDS011;66102;48.542;-2.970;2023-01-20T00:47:19;10.27;;;3.85;;
77136;SDS011;66102;48.542;-2.970;2023-01-20T00:52:11;8.25;;;3.47;;
77136;SDS011;66102;48.542;-2.970;2023-01-20T00:57:02;24.58;;;7.43;;
77136;SDS011;66102;48.542;-2.970;2023-01-20T00:59:29;19.55;;;6.93;;
77136;SDS011;66102;48.542;-2.970;2023-01-20T01:04:21;13.70;;;4.70;;
77136;SDS011;66102;48.542;-2.970;2023-01-20T01:09:12;10.52;;;3.40;;
77136;SDS011;66102;48.542;-2.970;2023-01-20T01:14:04;7.80;;;3.33;;
77136;SDS011;66102;48.542;-2.970;2023-01-20T01:18:56;9.00;;;3.97;;
77136;SDS011;66102;48.542;-2.970;2023-01-20T01:21:22;7.55;;;3.10;;
77136;SDS011;66102;48.542;-2.970;2023-01-20T01:26:15;9.23;;;3.28;;
77136;SDS011;66102;48.542;-2.970;2023-01-20T01:28:42;10.85;;;3.60;;
77136;SDS011;66102;48.542;-2.970;2023-01-20T01:31:08;10.35;;;3.85;;
77136;SDS011;66102;48.542;-2.970;2023-01-20T01:33:34;10.52;;;4.07;;
77136;SDS011;66102;48.542;-2.970;2023-01-20T01:38:27;12.27;;;4.30;;
77136;SDS011;66102;48.542;-2.970;2023-01-20T01:40:53;16.25;;;5.75;;
77136;SDS011;66102;48.542;-2.970;2023-01-20T01:43:24;21.60;;;7.15;;
77136;SDS011;66102;48.542;-2.970;2023-01-20T01:45:51;23.45;;;6.90;;
77136;SDS011;66102;48.542;-2.970;2023-01-20T01:48:19;29.42;;;8.85;;
77136;SDS011;66102;48.542;-2.970;2023-01-20T01:50:47;18.83;;;6.60;;
77136;SDS011;66102;48.542;-2.970;2023-01-20T01:53:16;21.08;;;6.97;;
77136;SDS011;66102;48.542;-2.970;2023-01-20T01:55:43;18.30;;;6.25;;
77136;SDS011;66102;48.542;-2.970;2023-01-20T01:58:11;18.20;;;5.60;;
77136;SDS011;66102;48.542;-2.970;2023-01-20T02:00:38;12.90;;;4.90;;
77136;SDS011;66102;48.542;-2.970;2023-01-20T02:03:05;12.45;;;4.20;;
77136;SDS011;66102;48.542;-2.970;2023-01-20T02:05:31;11.18;;;4.38;;
77136;SDS011;66102;48.542;-2.970;2023-01-20T02:07:57;14.15;;;4.43;;
77136;SDS011;66102;48.542;-2.970;2023-01-20T02:12:49;15.70;;;5.47;;
77136;SDS011;66102;48.542;-2.970;2023-01-20T02:15:17;15.40;;;5.47;;
77136;SDS011;66102;48.542;-2.970;2023-01-20T02:35:57;11.35;;;4.75;;
77136;SDS011;66102;48.542;-2.970;2023-01-20T02:38:34;8.70;;;3.95;;
77136;SDS011;66102;48.542;-2.970;2023-01-20T02:51:02;6.15;;;2.70;;
77136;SDS011;66102;48.542;-2.970;2023-01-20T02:53:35;8.40;;;3.00;;
77136;SDS011;66102;48.542;-2.970;2023-01-20T02:56:03;7.93;;;3.13;;
77136;SDS011;66102;48.542;-2.970;2023-01-20T02:58:34;6.18;;;2.42;;
77136;SDS011;66102;48.542;-2.970;2023-01-20T03:01:04;7.72;;;3.08;;
77136;SDS011;66102;48.542;-2.970;2023-01-20T03:03:32;7.10;;;2.80;;
77136;SDS011;66102;48.542;-2.970;2023-01-20T03:06:01;6.28;;;3.10;;
77136;SDS011;66102;48.542;-2.970;2023-01-20T03:08:29;6.75;;;3.25;;
77136;SDS011;66102;48.542;-2.970;2023-01-20T03:11:05;7.30;;;3.00;;
77136;SDS011;66102;48.542;-2.970;2023-01-20T03:13:38;7.22;;;3.00;;
77136;SDS011;66102;48.542;-2.970;2023-01-20T03:16:07;8.20;;;2.83;;
77136;SDS011;66102;48.542;-2.970;2023-01-20T03:18:34;8.15;;;3.67;;
77136;SDS011;66102;48.542;-2.970;2023-01-20T03:21:01;7.38;;;3.33;;
77136;SDS011;66102;48.542;-2.970;2023-01-20T03:23:29;6.78;;;2.92;;
77136;SDS011;66102;48.542;-2.970;2023-01-20T03:25:56;5.57;;;2.55;;
77136;SDS011;66102;48.542;-2.970;2023-01-20T03:28:23;10.35;;;3.28;;
77136;SDS011;66102;48.542;-2.970;2023-01-20T03:33:14;7.57;;;2.80;;
77136;SDS011;66102;48.542;-2.970;2023-01-20T03:35:42;5.15;;;2.60;;
77136;SDS011;66102;48.542;-2.970;2023-01-20T03:38:08;8.85;;;2.83;;
77136;SDS011;66102;48.542;-2.970;2023-01-20T03:40:37;6.93;;;2.95;;
77136;SDS011;66102;48.542;-2.970;2023-01-20T03:43:05;7.28;;;2.80;;
77136;SDS011;66102;48.542;-2.970;2023-01-20T03:45:40;6.20;;;2.58;;
77136;SDS011;66102;48.542;-2.970;2023-01-20T03:55:39;6.32;;;2.83;;
77136;SDS011;66102;48.542;-2.970;2023-01-20T03:58:07;6.85;;;2.72;;
77136;SDS011;66102;48.542;-2.970;2023-01-20T04:00:38;6.93;;;2.65;;
77136;SDS011;66102;48.542;-2.970;2023-01-20T04:03:07;6.57;;;3.00;;
77136;SDS011;66102;48.542;-2.970;2023-01-20T04:05:36;10.00;;;2.80;;
77136;SDS011;66102;48.542;-2.970;2023-01-20T04:08:05;6.10;;;2.70;;
77136;SDS011;66102;48.542;-2.970;2023-01-20T04:10:31;6.70;;;2.30;;
77136;SDS011;66102;48.542;-2.970;2023-01-20T04:12:59;5.38;;;2.60;;
77136;SDS011;66102;48.542;-2.970;2023-01-20T04:17:51;6.72;;;2.95;;
77136;SDS011;66102;48.542;-2.970;2023-01-20T04:20:18;7.57;;;3.08;;
77136;SDS011;66102;48.542;-2.970;2023-01-20T04:22:54;8.38;;;3.10;;
77136;SDS011;66102;48.542;-2.970;2023-01-20T04:25:26;8.15;;;2.80;;
77136;SDS011;66102;48.542;-2.970;2023-01-20T04:27:53;6.70;;;2.67;;
77136;SDS011;66102;48.542;-2.970;2023-01-20T04:30:19;6.35;;;2.83;;
77136;SDS011;66102;48.542;-2.970;2023-01-20T04:32:45;6.50;;;2.53;;
77136;SDS011;66102;48.542;-2.970;2023-01-20T04:35:12;5.88;;;2.45;;
77136;SDS011;66102;48.542;-2.970;2023-01-20T04:37:38;6.78;;;2.88;;
77136;SDS011;66102;48.542;-2.970;2023-01-20T04:42:30;6.30;;;2.45;;
77136;SDS011;66102;48.542;-2.970;2023-01-20T04:44:56;6.60;;;2.60;;
77136;SDS011;66102;48.542;-2.970;2023-01-20T04:49:48;5.95;;;2.42;;
77136;SDS011;66102;48.542;-2.970;2023-01-20T04:52:15;6.32;;;2.60;;
77136;SDS011;66102;48.542;-2.970;2023-01-20T04:54:41;6.88;;;2.72;;
77136;SDS011;66102;48.542;-2.970;2023-01-20T04:57:07;6.93;;;2.70;;
77136;SDS011;66102;48.542;-2.970;2023-01-20T04:59:33;7.28;;;2.42;;
77136;SDS011;66102;48.542;-2.970;2023-01-20T05:01:59;8.90;;;2.65;;
77136;SDS011;66102;48.542;-2.970;2023-01-20T05:04:25;5.40;;;2.20;;
77136;SDS011;66102;48.542;-2.970;2023-01-20T05:09:17;5.53;;;2.50;;
77136;SDS011;66102;48.542;-2.970;2023-01-20T05:14:10;5.88;;;2.45;;
77136;SDS011;66102;48.542;-2.970;2023-01-20T05:16:36;9.48;;;2.80;;
77136;SDS011;66102;48.542;-2.970;2023-01-20T05:19:02;8.27;;;2.35;;
77136;SDS011;66102;48.542;-2.970;2023-01-20T05:23:54;7.63;;;2.75;;
77136;SDS011;66102;48.542;-2.970;2023-01-20T05:26:21;7.35;;;2.63;;
77136;SDS011;66102;48.542;-2.970;2023-01-20T05:28:47;6.63;;;2.80;;
77136;SDS011;66102;48.542;-2.970;2023-01-20T05:33:39;4.90;;;2.22;;
77136;SDS011;66102;48.542;-2.970;2023-01-20T05:38:31;10.15;;;2.50;;
77136;SDS011;66102;48.542;-2.970;2023-01-20T05:43:23;6.25;;;2.80;;
77136;SDS011;66102;48.542;-2.970;2023-01-20T05:48:15;6.47;;;2.53;;
77136;SDS011;66102;48.542;-2.970;2023-01-20T05:50:41;7.32;;;3.20;;
77136;SDS011;66102;48.542;-2.970;2023-01-20T05:55:33;7.30;;;3.05;;
77136;SDS011;66102;48.542;-2.970;2023-01-20T05:58:00;7.38;;;2.97;;
77136;SDS011;66102;48.542;-2.970;2023-01-20T06:00:26;6.18;;;2.55;;
77136;SDS011;66102;48.542;-2.970;2023-01-20T06:02:52;9.48;;;3.15;;
77136;SDS011;66102;48.542;-2.970;2023-01-20T06:05:18;9.23;;;2.67;;
77136;SDS011;66102;48.542;-2.970;2023-01-20T06:07:44;7.72;;;2.40;;
77136;SDS011;66102;48.542;-2.970;2023-01-20T06:10:10;7.72;;;2.70;;
77136;SDS011;66102;48.542;-2.970;2023-01-20T06:15:03;6.85;;;2.40;;
77136;SDS011;66102;48.542;-2.970;2023-01-20T06:17:29;5.38;;;2.20;;
77136;SDS011;66102;48.542;-2.970;2023-01-20T06:19:55;7.22;;;3.20;;
77136;SDS011;66102;48.542;-2.970;2023-01-20T06:22:21;6.25;;;2.67;;
77136;SDS011;66102;48.542;-2.970;2023-01-20T06:27:13;6.65;;;2.47;;
77136;SDS011;66102;48.542;-2.970;2023-01-20T06:32:05;9.18;;;2.70;;
77136;SDS011;66102;48.542;-2.970;2023-01-20T06:36:57;7.00;;;2.60;;
77136;SDS011;66102;48.542;-2.970;2023-01-20T06:39:24;6.60;;;3.20;;
77136;SDS011;66102;48.542;-2.970;2023-01-20T06:44:16;7.68;;;3.70;;
77136;SDS011;66102;48.542;-2.970;2023-01-20T06:49:08;7.18;;;2.38;;
77136;SDS011;66102;48.542;-2.970;2023-01-20T06:53:59;6.97;;;2.67;;
77136;SDS011;66102;48.542;-2.970;2023-01-20T06:58:51;5.55;;;2.28;;
77136;SDS011;66102;48.542;-2.970;2023-01-20T07:03:43;5.70;;;2.13;;
77136;SDS011;66102;48.542;-2.970;2023-01-20T07:06:14;5.70;;;2.50;;
77136;SDS011;66102;48.542;-2.970;2023-01-20T07:08:41;6.07;;;2.42;;
77136;SDS011;66102;48.542;-2.970;2023-01-20T07:11:22;6.25;;;2.20;;
77136;SDS011;66102;48.542;-2.970;2023-01-20T07:16:14;6.80;;;2.67;;
77136;SDS011;66102;48.542;-2.970;2023-01-20T07:21:08;6.20;;;2.50;;
77136;SDS011;66102;48.542;-2.970;2023-01-20T07:23:34;8.30;;;3.42;;
77136;SDS011;66102;48.542;-2.970;2023-01-20T07:28:26;6.95;;;3.13;;
77136;SDS011;66102;48.542;-2.970;2023-01-20T07:33:18;7.97;;;2.08;;
77136;SDS011;66102;48.542;-2.970;2023-01-20T07:38:10;9.65;;;2.58;;
77136;SDS011;66102;48.542;-2.970;2023-01-20T07:43:02;11.02;;;2.70;;
77136;SDS011;66102;48.542;-2.970;2023-01-20T07:45:29;10.75;;;3.00;;
77136;SDS011;66102;48.542;-2.970;2023-01-20T07:47:55;6.82;;;2.88;;
77136;SDS011;66102;48.542;-2.970;2023-01-20T07:50:21;6.38;;;2.10;;
77136;SDS011;66102;48.542;-2.970;2023-01-20T07:52:47;6.82;;;2.78;;
77136;SDS011;66102;48.542;-2.970;2023-01-20T07:55:13;11.63;;;4.53;;
77136;SDS011;66102;48.542;-2.970;2023-01-20T08:00:05;11.43;;;3.35;;
77136;SDS011;66102;48.542;-2.970;2023-01-20T08:02:35;9.15;;;3.25;;
77136;SDS011;66102;48.542;-2.970;2023-01-20T08:05:02;9.98;;;3.55;;
77136;SDS011;66102;48.542;-2.970;2023-01-20T08:07:28;9.77;;;3.42;;
77136;SDS011;66102;48.542;-2.970;2023-01-20T08:09:55;8.82;;;2.80;;
77136;SDS011;66102;48.542;-2.970;2023-01-20T08:12:22;10.38;;;3.67;;
77136;SDS011;66102;48.542;-2.970;2023-01-20T08:14:48;8.60;;;3.10;;
77136;SDS011;66102;48.542;-2.970;2023-01-20T08:17:14;7.47;;;2.55;;
77136;SDS011;66102;48.542;-2.970;2023-01-20T08:19:40;7.68;;;2.50;;
77136;SDS011;66102;48.542;-2.970;2023-01-20T08:24:34;9.55;;;3.17;;
77136;SDS011;66102;48.542;-2.970;2023-01-20T08:29:26;8.20;;;2.58;;
77136;SDS011;66102;48.542;-2.970;2023-01-20T08:31:54;7.38;;;3.33;;
77136;SDS011;66102;48.542;-2.970;2023-01-20T08:34:20;9.90;;;3.15;;
77136;SDS011;66102;48.542;-2.970;2023-01-20T08:36:47;10.30;;;4.05;;
77136;SDS011;66102;48.542;-2.970;2023-01-20T08:39:14;9.32;;;3.25;;
77136;SDS011;66102;48.542;-2.970;2023-01-20T08:41:42;8.20;;;2.95;;
77136;SDS011;66102;48.542;-2.970;2023-01-20T08:44:10;6.25;;;2.88;;
77136;SDS011;66102;48.542;-2.970;2023-01-20T08:46:41;8.48;;;3.03;;
77136;SDS011;66102;48.542;-2.970;2023-01-20T08:49:10;9.23;;;3.58;;
77136;SDS011;66102;48.542;-2.970;2023-01-20T08:51:37;11.77;;;3.17;;
77136;SDS011;66102;48.542;-2.970;2023-01-20T08:56:29;7.38;;;3.05;;
77136;SDS011;66102;48.542;-2.970;2023-01-20T08:58:56;6.63;;;2.60;;
77136;SDS011;66102;48.542;-2.970;2023-01-20T09:01:26;8.43;;;3.17;;
77136;SDS011;66102;48.542;-2.970;2023-01-20T09:03:53;9.00;;;3.33;;
77136;SDS011;66102;48.542;-2.970;2023-01-20T09:06:19;10.50;;;3.90;;
77136;SDS011;66102;48.542;-2.970;2023-01-20T09:08:46;6.90;;;3.03;;
77136;SDS011;66102;48.542;-2.970;2023-01-20T09:11:20;7.93;;;2.90;;
77136;SDS011;66102;48.542;-2.970;2023-01-20T09:13:48;8.18;;;2.50;;
77136;SDS011;66102;48.542;-2.970;2023-01-20T09:16:15;6.78;;;2.03;;
77136;SDS011;66102;48.542;-2.970;2023-01-20T09:18:41;6.28;;;2.78;;
77136;SDS011;66102;48.542;-2.970;2023-01-20T09:21:07;6.80;;;2.55;;
77136;SDS011;66102;48.542;-2.970;2023-01-20T09:23:34;8.48;;;2.97;;
77136;SDS011;66102;48.542;-2.970;2023-01-20T09:26:01;7.50;;;2.60;;
77136;SDS011;66102;48.542;-2.970;2023-01-20T09:28:28;10.20;;;2.95;;
77136;SDS011;66102;48.542;-2.970;2023-01-20T09:31:07;7.93;;;2.95;;
77136;SDS011;66102;48.542;-2.970;2023-01-20T09:33:35;7.97;;;2.55;;
77136;SDS011;66102;48.542;-2.970;2023-01-20T09:36:03;6.20;;;2.30;;
77136;SDS011;66102;48.542;-2.970;2023-01-20T09:38:30;6.75;;;2.60;;
77136;SDS011;66102;48.542;-2.970;2023-01-20T09:46:55;5.82;;;2.58;;
77136;SDS011;66102;48.542;-2.970;2023-01-20T09:52:46;15.77;;;7.05;;
77136;SDS011;66102;48.542;-2.970;2023-01-20T09:55:48;10.65;;;4.53;;
77136;SDS011;66102;48.542;-2.970;2023-01-20T09:58:33;8.00;;;2.50;;
77136;SDS011;66102;48.542;-2.970;2023-01-20T10:11:54;9.20;;;3.72;;
77136;SDS011;66102;48.542;-2.970;2023-01-20T10:14:42;9.70;;;2.92;;
77136;SDS011;66102;48.542;-2.970;2023-01-20T10:17:14;5.22;;;2.53;;
77136;SDS011;66102;48.542;-2.970;2023-01-20T10:22:35;6.97;;;2.88;;
77136;SDS011;66102;48.542;-2.970;2023-01-20T10:25:03;9.07;;;3.50;;
77136;SDS011;66102;48.542;-2.970;2023-01-20T10:27:33;9.27;;;2.97;;
77136;SDS011;66102;48.542;-2.970;2023-01-20T10:30:03;7.22;;;2.95;;
77136;SDS011;66102;48.542;-2.970;2023-01-20T10:32:37;6.53;;;2.55;;
77136;SDS011;66102;48.542;-2.970;2023-01-20T10:37:40;13.23;;;5.20;;
77136;SDS011;66102;48.542;-2.970;2023-01-20T10:40:16;12.45;;;3.92;;
77136;SDS011;66102;48.542;-2.970;2023-01-20T10:42:45;10.27;;;4.10;;
77136;SDS011;66102;48.542;-2.970;2023-01-20T10:45:18;9.35;;;3.60;;
77136;SDS011;66102;48.542;-2.970;2023-01-20T10:58:32;13.02;;;5.53;;
77136;SDS011;66102;48.542;-2.970;2023-01-20T11:00:59;10.70;;;4.55;;
77136;SDS011;66102;48.542;-2.970;2023-01-20T11:03:26;9.70;;;3.80;;
77136;SDS011;66102;48.542;-2.970;2023-01-20T11:05:56;9.98;;;3.50;;
77136;SDS011;66102;48.542;-2.970;2023-01-20T11:08:23;9.75;;;3.33;;
77136;SDS011;66102;48.542;-2.970;2023-01-20T11:10:53;7.07;;;2.65;;
77136;SDS011;66102;48.542;-2.970;2023-01-20T11:13:20;11.77;;;3.13;;
77136;SDS011;66102;48.542;-2.970;2023-01-20T11:15:47;10.88;;;4.63;;
77136;SDS011;66102;48.542;-2.970;2023-01-20T11:18:19;9.57;;;3.25;;
77136;SDS011;66102;48.542;-2.970;2023-01-20T11:26:05;8.38;;;2.30;;
77136;SDS011;66102;48.542;-2.970;2023-01-20T11:28:36;6.45;;;2.78;;
77136;SDS011;66102;48.542;-2.970;2023-01-20T11:31:09;6.90;;;2.83;;
77136;SDS011;66102;48.542;-2.970;2023-01-20T11:33:36;5.82;;;2.53;;
77136;SDS011;66102;48.542;-2.970;2023-01-20T11:36:09;9.13;;;2.90;;
77136;SDS011;66102;48.542;-2.970;2023-01-20T11:38:42;8.23;;;3.13;;
77136;SDS011;66102;48.542;-2.970;2023-01-20T11:41:22;8.10;;;3.15;;
77136;SDS011;66102;48.542;-2.970;2023-01-20T11:43:49;10.00;;;3.58;;
77136;SDS011;66102;48.542;-2.970;2023-01-20T11:46:24;5.97;;;2.67;;
77136;SDS011;66102;48.542;-2.970;2023-01-20T11:51:43;5.15;;;2.70;;
77136;SDS011;66102;48.542;-2.970;2023-01-20T11:54:12;9.30;;;3.90;;
77136;SDS011;66102;48.542;-2.970;2023-01-20T11:56:40;6.53;;;3.00;;
77136;SDS011;66102;48.542;-2.970;2023-01-20T11:59:16;8.45;;;3.47;;
77136;SDS011;66102;48.542;-2.970;2023-01-20T12:01:50;7.57;;;2.90;;
77136;SDS011;66102;48.542;-2.970;2023-01-20T12:09:19;6.13;;;2.58;;
77136;SDS011;66102;48.542;-2.970;2023-01-20T12:16:50;8.70;;;3.20;;
77136;SDS011;66102;48.542;-2.970;2023-01-20T12:19:18;9.63;;;2.92;;
77136;SDS011;66102;48.542;-2.970;2023-01-20T12:21:48;7.50;;;3.10;;
77136;SDS011;66102;48.542;-2.970;2023-01-20T12:24:20;10.23;;;4.07;;
77136;SDS011;66102;48.542;-2.970;2023-01-20T12:26:47;8.85;;;4.50;;
77136;SDS011;66102;48.542;-2.970;2023-01-20T12:31:59;8.15;;;3.15;;
77136;SDS011;66102;48.542;-2.970;2023-01-20T12:34:29;7.18;;;3.05;;
77136;SDS011;66102;48.542;-2.970;2023-01-20T12:41:55;8.27;;;2.00;;
77136;SDS011;66102;48.542;-2.970;2023-01-20T12:47:18;5.25;;;1.88;;
77136;SDS011;66102;48.542;-2.970;2023-01-20T13:08:22;5.97;;;1.83;;
77136;SDS011;66102;48.542;-2.970;2023-01-20T13:11:01;4.80;;;1.55;;
77136;SDS011;66102;48.542;-2.970;2023-01-20T13:21:03;8.77;;;1.70;;
77136;SDS011;66102;48.542;-2.970;2023-01-20T13:23:34;5.43;;;1.30;;
77136;SDS011;66102;48.542;-2.970;2023-01-20T13:26:02;5.88;;;1.15;;
77136;SDS011;66102;48.542;-2.970;2023-01-20T13:28:29;6.93;;;1.25;;
77136;SDS011;66102;48.542;-2.970;2023-01-20T13:30:56;6.50;;;1.85;;
77136;SDS011;66102;48.542;-2.970;2023-01-20T13:33:38;5.57;;;1.40;;
77136;SDS011;66102;48.542;-2.970;2023-01-20T13:36:20;7.55;;;2.20;;
77136;SDS011;66102;48.542;-2.970;2023-01-20T13:41:50;9.95;;;1.90;;
77136;SDS011;66102;48.542;-2.970;2023-01-20T13:44:30;4.45;;;1.30;;
77136;SDS011;66102;48.542;-2.970;2023-01-20T13:46:57;4.45;;;1.40;;
77136;SDS011;66102;48.542;-2.970;2023-01-20T13:49:26;5.07;;;1.23;;
77136;SDS011;66102;48.542;-2.970;2023-01-20T13:51:56;6.55;;;1.60;;
77136;SDS011;66102;48.542;-2.970;2023-01-20T13:57:38;5.68;;;1.55;;
77136;SDS011;66102;48.542;-2.970;2023-01-20T13:59:39;6.95;;;1.27;;
77136;SDS011;66102;48.542;-2.970;2023-01-20T14:02:16;4.57;;;1.02;;
77136;SDS011;66102;48.542;-2.970;2023-01-20T14:04:44;5.22;;;1.45;;
77136;SDS011;66102;48.542;-2.970;2023-01-20T14:07:23;7.80;;;2.30;;
77136;SDS011;66102;48.542;-2.970;2023-01-20T14:09:56;7.57;;;1.70;;
77136;SDS011;66102;48.542;-2.970;2023-01-20T14:12:23;5.75;;;1.38;;
77136;SDS011;66102;48.542;-2.970;2023-01-20T14:14:49;6.35;;;2.05;;
77136;SDS011;66102;48.542;-2.970;2023-01-20T14:17:17;5.20;;;1.30;;
77136;SDS011;66102;48.542;-2.970;2023-01-20T14:19:48;5.50;;;1.67;;
77136;SDS011;66102;48.542;-2.970;2023-01-20T14:22:19;5.28;;;1.33;;
77136;SDS011;66102;48.542;-2.970;2023-01-20T14:24:48;6.05;;;1.40;;
77136;SDS011;66102;48.542;-2.970;2023-01-20T14:29:47;8.02;;;1.67;;
77136;SDS011;66102;48.542;-2.970;2023-01-20T14:34:42;4.70;;;1.60;;
77136;SDS011;66102;48.542;-2.970;2023-01-20T14:37:42;5.05;;;1.40;;
77136;SDS011;66102;48.542;-2.970;2023-01-20T14:42:56;6.28;;;1.60;;
77136;SDS011;66102;48.542;-2.970;2023-01-20T14:45:40;4.03;;;1.10;;
77136;SDS011;66102;48.542;-2.970;2023-01-20T14:48:38;4.90;;;1.20;;
77136;SDS011;66102;48.542;-2.970;2023-01-20T14:51:06;6.90;;;2.22;;
77136;SDS011;66102;48.542;-2.970;2023-01-20T14:53:34;9.25;;;3.33;;
77136;SDS011;66102;48.542;-2.970;2023-01-20T14:56:01;4.97;;;1.52;;
77136;SDS011;66102;48.542;-2.970;2023-01-20T14:58:27;10.52;;;3.40;;
77136;SDS011;66102;48.542;-2.970;2023-01-20T15:00:54;9.15;;;2.58;;
77136;SDS011;66102;48.542;-2.970;2023-01-20T15:03:25;11.10;;;2.55;;
77136;SDS011;66102;48.542;-2.970;2023-01-20T15:08:23;10.13;;;1.55;;
77136;SDS011;66102;48.542;-2.970;2023-01-20T15:13:35;6.20;;;1.80;;
77136;SDS011;66102;48.542;-2.970;2023-01-20T15:16:16;5.82;;;1.30;;
77136;SDS011;66102;48.542;-2.970;2023-01-20T15:21:34;9.60;;;1.98;;
77136;SDS011;66102;48.542;-2.970;2023-01-20T15:26:41;6.60;;;1.80;;
77136;SDS011;66102;48.542;-2.970;2023-01-20T15:32:10;7.10;;;1.88;;
77136;SDS011;66102;48.542;-2.970;2023-01-20T15:34:37;12.90;;;5.20;;
77136;SDS011;66102;48.542;-2.970;2023-01-20T15:37:08;21.65;;;7.72;;
77136;SDS011;66102;48.542;-2.970;2023-01-20T15:39:34;13.20;;;4.35;;
77136;SDS011;66102;48.542;-2.970;2023-01-20T15:42:00;17.25;;;7.13;;
77136;SDS011;66102;48.542;-2.970;2023-01-20T15:44:26;22.60;;;7.93;;
77136;SDS011;66102;48.542;-2.970;2023-01-20T15:46:52;12.07;;;4.40;;
77136;SDS011;66102;48.542;-2.970;2023-01-20T15:49:19;10.45;;;2.90;;
77136;SDS011;66102;48.542;-2.970;2023-01-20T15:51:45;7.05;;;2.35;;
77136;SDS011;66102;48.542;-2.970;2023-01-20T15:54:11;7.40;;;2.35;;
77136;SDS011;66102;48.542;-2.970;2023-01-20T15:56:41;5.63;;;1.48;;
77136;SDS011;66102;48.542;-2.970;2023-01-20T15:59:11;5.25;;;1.73;;
77136;SDS011;66102;48.542;-2.970;2023-01-20T16:01:37;5.07;;;1.30;;
77136;SDS011;66102;48.542;-2.970;2023-01-20T16:04:03;4.25;;;1.30;;
77136;SDS011;66102;48.542;-2.970;2023-01-20T16:06:30;4.50;;;1.23;;
77136;SDS011;66102;48.542;-2.970;2023-01-20T16:08:56;4.20;;;1.40;;
77136;SDS011;66102;48.542;-2.970;2023-01-20T16:11:24;6.10;;;1.80;;
77136;SDS011;66102;48.542;-2.970;2023-01-20T16:13:50;6.13;;;1.55;;
77136;SDS011;66102;48.542;-2.970;2023-01-20T16:18:43;5.47;;;1.83;;
77136;SDS011;66102;48.542;-2.970;2023-01-20T16:21:13;7.35;;;2.05;;
77136;SDS011;66102;48.542;-2.970;2023-01-20T16:23:39;8.85;;;1.92;;
77136;SDS011;66102;48.542;-2.970;2023-01-20T16:28:37;4.40;;;1.65;;
77136;SDS011;66102;48.542;-2.970;2023-01-20T16:31:03;4.47;;;1.50;;
77136;SDS011;66102;48.542;-2.970;2023-01-20T16:33:29;5.38;;;1.85;;
77136;SDS011;66102;48.542;-2.970;2023-01-20T16:35:55;7.07;;;1.90;;
77136;SDS011;66102;48.542;-2.970;2023-01-20T16:38:22;6.28;;;1.50;;
77136;SDS011;66102;48.542;-2.970;2023-01-20T16:43:33;4.68;;;1.55;;
77136;SDS011;66102;48.542;-2.970;2023-01-20T16:45:59;5.43;;;1.60;;
77136;SDS011;66102;48.542;-2.970;2023-01-20T16:48:26;6.55;;;1.75;;
77136;SDS011;66102;48.542;-2.970;2023-01-20T16:50:54;6.63;;;1.77;;
77136;SDS011;66102;48.542;-2.970;2023-01-20T16:53:26;5.40;;;1.35;;
77136;SDS011;66102;48.542;-2.970;2023-01-20T16:55:52;4.35;;;1.20;;
77136;SDS011;66102;48.542;-2.970;2023-01-20T16:58:18;3.78;;;1.27;;
77136;SDS011;66102;48.542;-2.970;2023-01-20T17:00:44;5.05;;;1.10;;
77136;SDS011;66102;48.542;-2.970;2023-01-20T17:03:10;4.63;;;1.30;;
77136;SDS011;66102;48.542;-2.970;2023-01-20T17:05:36;3.50;;;1.33;;
77136;SDS011;66102;48.542;-2.970;2023-01-20T17:08:02;5.00;;;2.17;;
77136;SDS011;66102;48.542;-2.970;2023-01-20T17:10:29;3.92;;;1.20;;
77136;SDS011;66102;48.542;-2.970;2023-01-20T17:12:56;3.70;;;1.23;;
77136;SDS011;66102;48.542;-2.970;2023-01-20T17:15:23;3.95;;;1.25;;
77136;SDS011;66102;48.542;-2.970;2023-01-20T17:17:53;4.50;;;1.35;;
77136;SDS011;66102;48.542;-2.970;2023-01-20T17:20:20;5.90;;;1.55;;
77136;SDS011;66102;48.542;-2.970;2023-01-20T17:22:47;5.78;;;1.65;;
77136;SDS011;66102;48.542;-2.970;2023-01-20T17:25:13;5.45;;;1.42;;
77136;SDS011;66102;48.542;-2.970;2023-01-20T17:27:41;5.25;;;1.20;;
77136;SDS011;66102;48.542;-2.970;2023-01-20T17:30:07;4.40;;;1.10;;
77136;SDS011;66102;48.542;-2.970;2023-01-20T17:32:34;5.00;;;1.40;;
77136;SDS011;66102;48.542;-2.970;2023-01-20T17:35:00;4.15;;;1.20;;
77136;SDS011;66102;48.542;-2.970;2023-01-20T17:37:26;6.78;;;1.40;;
77136;SDS011;66102;48.542;-2.970;2023-01-20T17:39:52;6.20;;;1.60;;
77136;SDS011;66102;48.542;-2.970;2023-01-20T17:42:18;4.80;;;1.40;;
77136;SDS011;66102;48.542;-2.970;2023-01-20T17:44:44;4.45;;;1.42;;
77136;SDS011;66102;48.542;-2.970;2023-01-20T17:47:11;5.05;;;1.00;;
77136;SDS011;66102;48.542;-2.970;2023-01-20T17:49:37;5.45;;;1.45;;
77136;SDS011;66102;48.542;-2.970;2023-01-20T17:52:03;6.90;;;1.30;;
77136;SDS011;66102;48.542;-2.970;2023-01-20T17:54:29;4.50;;;1.45;;
77136;SDS011;66102;48.542;-2.970;2023-01-20T17:56:55;4.38;;;1.35;;
77136;SDS011;66102;48.542;-2.970;2023-01-20T17:59:21;4.15;;;1.88;;
77136;SDS011;66102;48.542;-2.970;2023-01-20T18:01:50;4.88;;;1.40;;
77136;SDS011;66102;48.542;-2.970;2023-01-20T18:04:16;4.68;;;1.70;;
77136;SDS011;66102;48.542;-2.970;2023-01-20T18:06:42;6.72;;;1.50;;
77136;SDS011;66102;48.542;-2.970;2023-01-20T18:09:10;5.28;;;1.50;;
77136;SDS011;66102;48.542;-2.970;2023-01-20T18:11:36;5.07;;;1.38;;
77136;SDS011;66102;48.542;-2.970;2023-01-20T18:14:03;6.03;;;1.55;;
77136;SDS011;66102;48.542;-2.970;2023-01-20T18:16:36;6.38;;;1.50;;
77136;SDS011;66102;48.542;-2.970;2023-01-20T18:19:03;4.43;;;1.42;;
77136;SDS011;66102;48.542;-2.970;2023-01-20T18:21:33;4.40;;;1.40;;
77136;SDS011;66102;48.542;-2.970;2023-01-20T18:24:00;4.47;;;1.45;;
77136;SDS011;66102;48.542;-2.970;2023-01-20T18:26:27;5.43;;;1.52;;
77136;SDS011;66102;48.542;-2.970;2023-01-20T18:28:54;4.53;;;1.50;;
77136;SDS011;66102;48.542;-2.970;2023-01-20T18:31:21;6.00;;;1.52;;
77136;SDS011;66102;48.542;-2.970;2023-01-20T18:33:52;6.78;;;1.98;;
77136;SDS011;66102;48.542;-2.970;2023-01-20T18:36:19;5.03;;;1.63;;
77136;SDS011;66102;48.542;-2.970;2023-01-20T18:38:53;4.25;;;1.60;;
77136;SDS011;66102;48.542;-2.970;2023-01-20T18:41:19;6.30;;;1.92;;
77136;SDS011;66102;48.542;-2.970;2023-01-20T18:43:46;7.97;;;2.10;;
77136;SDS011;66102;48.542;-2.970;2023-01-20T18:46:13;5.43;;;1.75;;
77136;SDS011;66102;48.542;-2.970;2023-01-20T18:48:39;4.88;;;1.70;;
77136;SDS011;66102;48.542;-2.970;2023-01-20T18:51:06;5.82;;;1.75;;
77136;SDS011;66102;48.542;-2.970;2023-01-20T18:53:34;3.88;;;1.73;;
77136;SDS011;66102;48.542;-2.970;2023-01-20T18:58:26;4.38;;;1.60;;
77136;SDS011;66102;48.542;-2.970;2023-01-20T19:00:53;5.35;;;1.98;;
77136;SDS011;66102;48.542;-2.970;2023-01-20T19:03:19;5.97;;;2.25;;
77136;SDS011;66102;48.542;-2.970;2023-01-20T19:08:12;5.57;;;2.20;;
77136;SDS011;66102;48.542;-2.970;2023-01-20T19:13:04;7.97;;;2.30;;
77136;SDS011;66102;48.542;-2.970;2023-01-20T19:17:56;5.53;;;2.05;;
77136;SDS011;66102;48.542;-2.970;2023-01-20T19:22:48;9.13;;;2.50;;
77136;SDS011;66102;48.542;-2.970;2023-01-20T19:27:39;5.50;;;2.15;;
77136;SDS011;66102;48.542;-2.970;2023-01-20T19:30:06;5.65;;;2.17;;
77136;SDS011;66102;48.542;-2.970;2023-01-20T19:32:32;5.65;;;2.30;;